Terminal Aerodrome Forecast
Issued by NWS

Home | Current Version | Previous Version | Graphics & Text | Print | Product List | Glossary On
Versions: 1 2 3 4 5 6 7 8 9 10 11 12 13 14 15 16 17 18 19 20 21
000
FTUS42 KMHX 282321
TAFPGV
TAF
KPGV 282321Z 0100/0124 06004KT P6SM BKN250
     FM010400 04006KT P6SM SCT015 BKN040
     FM010800 03004KT 3SM BR BKN015 OVC025
     FM011400 05007KT P6SM BKN025 OVC040
     FM011800 02005KT 3SM -RA BR OVC010
      AMD LTD TO CLD VIS AND WIND=

USA.gov is the U.S. government's official web portal to all federal, state and local government web resources and services.